Time;durP1;ratioP1;P1;durP2;ratioP2;P2;SDS_P1;SDS_P2;PMS_P1;PMS_P2;Temp;Humidity;BMP_temperature;BMP_pressure;BME280_temperature;BME280_humidity;BME280_pressure;Samples;Min_cycle;Max_cycle;Signal;HPM_P1;HPM_P2
2022/04/10 00:04:12;;;;;;;10.50;7.20;;;22.90;49.90;;;;;;220664;1266;22551;-61
2022/04/10 00:09:40;;;;;;;9.70;7.00;;;22.90;49.80;;;;;;220248;1266;22534;-62
2022/04/10 00:15:02;;;;;;;9.80;6.60;;;22.80;50.70;;;;;;220324;1266;22630;-60
2022/04/10 00:20:20;;;;;;;10.10;6.20;;;22.70;50.10;;;;;;220588;1267;22543;-63
2022/04/10 00:25:33;;;;;;;10.50;7.10;;;22.70;50.10;;;;;;220796;1267;24277;-61
2022/04/10 00:30:50;;;;;;;9.70;6.40;;;22.60;50.10;;;;;;220746;1265;24244;-61
2022/04/10 00:36:05;;;;;;;8.90;6.40;;;22.60;50.20;;;;;;220503;1266;24304;-60
2022/04/10 00:41:14;;;;;;;9.80;6.50;;;22.60;50.20;;;;;;220575;1266;22580;-60
2022/04/10 00:46:31;;;;;;;10.60;6.10;;;22.60;50.30;;;;;;220493;1265;25348;-62
2022/04/10 00:51:52;;;;;;;7.80;5.60;;;22.50;50.30;;;;;;220767;1267;25032;-60
2022/04/10 00:57:13;;;;;;;9.40;6.10;;;22.40;51.00;;;;;;220479;1266;22598;-61
2022/04/10 01:02:23;;;;;;;8.10;5.30;;;22.40;51.00;;;;;;220307;1266;26602;-61
2022/04/10 01:07:45;;;;;;;10.60;5.50;;;22.30;51.50;;;;;;220332;1266;24262;-61
2022/04/10 01:13:01;;;;;;;12.10;5.60;;;22.30;51.40;;;;;;220735;1267;24287;-58
2022/04/10 01:18:19;;;;;;;11.60;5.70;;;22.30;51.20;;;;;;220548;1266;22567;-57
2022/04/10 01:23:31;;;;;;;9.40;5.40;;;22.30;51.10;;;;;;220352;1266;24342;-60
2022/04/10 01:28:35;;;;;;;9.60;5.70;;;22.60;50.80;;;;;;220682;1266;25212;-57
2022/04/10 01:33:58;;;;;;;8.00;4.90;;;22.90;49.90;;;;;;220598;1267;23834;-56
2022/04/10 01:39:11;;;;;;;7.50;4.90;;;23.20;49.50;;;;;;220519;1266;22811;-58
2022/04/10 01:44:25;;;;;;;9.90;5.40;;;23.40;48.70;;;;;;220564;1266;25036;-58
2022/04/10 01:49:50;;;;;;;8.10;4.90;;;23.50;48.40;;;;;;220711;1266;25446;-58
2022/04/10 01:55:06;;;;;;;;;;;23.60;48.50;;;;;;220685;1266;22538;-54
2022/04/10 02:00:27;;;;;;;;;;;23.70;48.20;;;;;;220566;1267;24171;-45
2022/04/10 02:05:56;;;;;;;6.90;4.50;;;23.70;47.90;;;;;;220511;1267;22595;-46
2022/04/10 02:11:15;;;;;;;6.80;4.50;;;23.80;47.50;;;;;;220420;1266;24373;-49
2022/04/10 02:16:43;;;;;;;6.80;4.70;;;23.80;47.40;;;;;;220418;1267;24036;-47
2022/04/10 02:22:01;;;;;;;8.00;4.50;;;23.90;47.20;;;;;;220498;1266;24434;-44
2022/04/10 02:27:37;;;;;;;5.90;4.10;;;23.90;47.00;;;;;;220561;1267;22645;-47
2022/04/10 02:33:07;;;;;;;8.60;4.30;;;23.90;47.00;;;;;;220498;1266;24144;-46
2022/04/10 02:38:23;;;;;;;11.30;4.10;;;23.80;47.10;;;;;;220818;1266;24651;-48
2022/04/10 02:43:58;;;;;;;5.20;4.00;;;23.70;47.20;;;;;;220494;1266;22560;-46
2022/04/10 02:49:07;;;;;;;5.90;3.50;;;23.60;47.50;;;;;;220507;1266;24302;-52
2022/04/10 02:54:16;;;;;;;5.60;4.20;;;23.50;47.60;;;;;;220581;1266;23425;-45
2022/04/10 03:00:07;;;;;;;7.30;4.20;;;23.50;47.80;;;;;;220478;1267;22733;-47
2022/04/10 03:05:21;;;;;;;7.80;3.90;;;23.40;48.20;;;;;;220157;1268;22555;-45
2022/04/10 03:10:55;;;;;;;6.10;3.70;;;23.30;48.00;;;;;;220414;1266;23012;-45
2022/04/10 03:16:17;;;;;;;6.20;3.60;;;23.30;48.00;;;;;;220331;1265;24372;-49
2022/04/10 03:21:30;;;;;;;6.30;3.70;;;23.30;47.90;;;;;;220619;1265;23947;-48
2022/04/10 03:26:53;;;;;;;6.30;3.80;;;23.60;47.50;;;;;;220312;1265;24267;-51
2022/04/10 03:32:14;;;;;;;4.80;3.30;;;23.70;47.10;;;;;;220893;1267;23036;-46
2022/04/10 03:37:33;;;;;;;5.20;3.50;;;23.80;46.90;;;;;;220660;1265;22587;-46
2022/04/10 03:42:46;;;;;;;4.80;3.30;;;23.90;46.80;;;;;;220545;1265;22534;-46
2022/04/10 03:47:55;;;;;;;5.80;3.30;;;23.90;46.50;;;;;;220428;1265;24221;-45
2022/04/10 03:53:05;;;;;;;6.60;3.10;;;23.90;46.80;;;;;;220799;1265;23163;-45
2022/04/10 03:58:15;;;;;;;5.60;3.60;;;23.80;46.70;;;;;;220882;1267;25364;-44
2022/04/10 04:03:53;;;;;;;5.70;3.30;;;23.60;47.40;;;;;;220457;1266;25239;-48
2022/04/10 04:09:33;;;;;;;4.80;2.70;;;23.40;47.50;;;;;;220907;1265;22701;-51
2022/04/10 04:15:40;;;;;;;6.40;3.30;;;23.30;47.60;;;;;;220352;1267;24302;-47
2022/04/10 04:21:40;;;;;;;;;;;;;;;;;;;;;
2022/04/10 04:27:19;;;;;;;5.60;3.70;;;23.10;47.90;;;;;;219539;1272;22586;-46
2022/04/10 04:32:52;;;;;;;4.90;3.00;;;23.10;48.00;;;;;;220126;1272;24375;-48
2022/04/10 04:38:29;;;;;;;4.80;3.00;;;23.10;48.00;;;;;;220030;1266;24490;-50
2022/04/10 04:44:08;;;;;;;4.20;2.90;;;23.00;48.20;;;;;;220614;1266;22684;-48
2022/04/10 04:49:50;;;;;;;4.60;3.10;;;23.00;48.20;;;;;;220560;1266;24364;-48
2022/04/10 04:55:40;;;;;;;5.00;3.00;;;22.90;48.10;;;;;;220846;1266;22556;-47
2022/04/10 05:01:34;;;;;;;5.20;3.20;;;22.80;48.20;;;;;;220464;1266;22756;-46
2022/04/10 05:06:53;;;;;;;4.20;2.90;;;22.80;48.60;;;;;;220451;1265;25553;-46
2022/04/10 05:12:22;;;;;;;4.80;2.80;;;22.70;48.30;;;;;;220757;1265;24303;-46
2022/04/10 05:17:57;;;;;;;4.80;2.70;;;22.70;48.40;;;;;;220641;1269;22909;-47
2022/04/10 05:23:32;;;;;;;3.90;2.80;;;22.60;48.40;;;;;;220699;1265;22929;-45
2022/04/10 05:29:08;;;;;;;5.30;2.70;;;22.60;48.40;;;;;;220616;1266;25425;-47
2022/04/10 05:34:25;;;;;;;4.40;2.60;;;22.60;48.80;;;;;;220836;1270;24328;-50
2022/04/10 05:39:54;;;;;;;4.30;2.70;;;22.50;48.50;;;;;;220484;1265;22548;-48
2022/04/10 05:45:26;;;;;;;6.90;3.40;;;22.40;48.60;;;;;;220433;1266;25409;-45
2022/04/10 05:51:14;;;;;;;3.20;2.10;;;22.40;48.60;;;;;;220544;1267;22787;-51
2022/04/10 05:57:13;;;;;;;4.20;2.70;;;22.40;48.70;;;;;;220244;1270;24246;-44
2022/04/10 06:02:34;;;;;;;4.90;2.50;;;22.70;48.60;;;;;;220065;1270;22528;-48
2022/04/10 06:07:39;;;;;;;4.40;2.70;;;23.10;47.80;;;;;;220001;1271;26489;-46
2022/04/10 06:12:52;;;;;;;4.10;2.60;;;23.30;47.40;;;;;;219770;1270;22664;-48
2022/04/10 06:18:00;;;;;;;3.90;2.40;;;23.40;46.90;;;;;;220179;1270;22594;-48
2022/04/10 06:23:10;;;;;;;3.40;2.10;;;23.50;46.60;;;;;;220275;1267;22551;-48
2022/04/10 06:28:18;;;;;;;4.00;2.40;;;23.60;46.30;;;;;;220369;1265;25641;-46
2022/04/10 06:33:27;;;;;;;3.70;2.30;;;23.70;46.20;;;;;;220208;1267;25430;-48
2022/04/10 06:38:34;;;;;;;5.10;2.10;;;23.70;46.40;;;;;;220874;1268;22612;-48
2022/04/10 06:43:44;;;;;;;5.00;2.20;;;23.80;46.00;;;;;;219194;1268;1674482;-52
2022/04/10 06:49:14;;;;;;;4.30;2.30;;;23.80;45.80;;;;;;220539;1265;24415;-48
2022/04/10 06:54:20;;;;;;;3.70;2.50;;;23.90;45.80;;;;;;220960;1266;24412;-48
2022/04/10 06:59:24;;;;;;;3.70;2.40;;;23.90;45.60;;;;;;220627;1265;22554;-51
2022/04/10 07:04:29;;;;;;;5.90;2.50;;;23.90;45.70;;;;;;220439;1266;26588;-45
2022/04/10 07:09:34;;;;;;;6.90;2.20;;;23.80;46.50;;;;;;220784;1268;24428;-46
2022/04/10 07:14:38;;;;;;;4.10;2.20;;;23.70;46.20;;;;;;220547;1265;25322;-45
2022/04/10 07:19:42;;;;;;;3.80;2.40;;;23.60;46.40;;;;;;220520;1266;22817;-50
2022/04/10 07:24:46;;;;;;;5.30;1.90;;;23.60;46.80;;;;;;220790;1268;25537;-47
2022/04/10 07:29:53;;;;;;;5.40;2.00;;;23.50;47.20;;;;;;220525;1268;25149;-46
2022/04/10 07:35:05;;;;;;;5.80;2.50;;;23.50;47.00;;;;;;220529;1265;23834;-47
2022/04/10 07:40:42;;;;;;;4.20;2.10;;;23.40;47.20;;;;;;220448;1265;25235;-49
2022/04/10 07:51:46;;;;;;;4.20;2.20;;;23.50;47.50;;;;;;220370;1265;22710;-50
2022/04/10 07:57:18;;;;;;;3.60;2.40;;;23.40;47.30;;;;;;220363;1265;23943;-48
2022/04/10 08:02:55;;;;;;;4.40;2.20;;;23.40;47.70;;;;;;220616;1268;22749;-48
2022/04/10 08:08:13;;;;;;;4.70;2.10;;;23.30;48.00;;;;;;220675;1265;24241;-48
2022/04/10 08:13:42;;;;;;;5.80;2.50;;;23.40;47.40;;;;;;220457;1268;25661;-48
2022/04/10 08:19:29;;;;;;;4.10;2.20;;;23.30;47.30;;;;;;220500;1266;25636;-47
2022/04/10 08:25:11;;;;;;;5.90;1.90;;;23.30;47.30;;;;;;220175;1265;24483;-48
2022/04/10 08:30:43;;;;;;;3.70;2.10;;;23.40;47.30;;;;;;220576;1268;25418;-46
2022/04/10 08:36:02;;;;;;;4.60;1.90;;;23.30;47.50;;;;;;220385;1268;25577;-48
2022/04/10 08:41:10;;;;;;;8.20;2.10;;;23.40;47.10;;;;;;220312;1265;23625;-46
2022/04/10 08:46:36;;;;;;;4.30;2.00;;;23.50;46.90;;;;;;220353;1267;22554;-46
2022/04/10 08:51:45;;;;;;;4.30;2.40;;;23.70;46.80;;;;;;220579;1266;27719;-47
2022/04/10 08:56:53;;;;;;;4.40;1.70;;;23.80;46.40;;;;;;220663;1265;25308;-45
2022/04/10 09:01:57;;;;;;;3.90;1.90;;;23.90;46.10;;;;;;220728;1265;24309;-46
2022/04/10 09:07:20;;;;;;;4.70;1.80;;;24.00;46.30;;;;;;220829;1265;25554;-45
2022/04/10 09:13:05;;;;;;;2.90;1.90;;;24.00;46.10;;;;;;220842;1265;24218;-46
2022/04/10 09:18:14;;;;;;;4.50;1.70;;;24.00;46.20;;;;;;220092;1265;22530;-46
2022/04/10 09:23:27;;;;;;;3.30;2.00;;;23.90;46.50;;;;;;220387;1265;24314;-48
2022/04/10 09:28:57;;;;;;;10.10;1.90;;;23.80;46.60;;;;;;220482;1266;24310;-46
2022/04/10 09:34:16;;;;;;;11.70;2.10;;;23.70;46.90;;;;;;220698;1267;22542;-46
2022/04/10 09:39:41;;;;;;;7.40;2.60;;;23.60;48.20;;;;;;220780;1267;22626;-50
2022/04/10 09:44:49;;;;;;;6.80;2.10;;;23.60;48.80;;;;;;220649;1265;22817;-44
2022/04/10 09:50:07;;;;;;;4.80;2.00;;;23.50;48.80;;;;;;220424;1265;23910;-50
2022/04/10 09:55:43;;;;;;;5.10;1.70;;;23.40;49.10;;;;;;220632;1267;24158;-46
2022/04/10 10:00:56;;;;;;;8.00;2.10;;;23.40;49.80;;;;;;220445;1265;25661;-45
2022/04/10 10:06:15;;;;;;;4.70;2.10;;;23.30;52.10;;;;;;220926;1266;25237;-47
2022/04/10 10:11:22;;;;;;;2.90;1.70;;;23.30;53.00;;;;;;220714;1265;22557;-46
2022/04/10 10:16:26;;;;;;;6.10;2.00;;;23.30;52.30;;;;;;220725;1265;26547;-47
2022/04/10 10:21:36;;;;;;;4.30;2.20;;;23.30;52.20;;;;;;220796;1266;22700;-44
2022/04/10 10:27:03;;;;;;;4.30;1.70;;;23.20;52.10;;;;;;220689;1266;22611;-49
2022/04/10 10:32:41;;;;;;;6.80;2.30;;;23.20;52.00;;;;;;220892;1265;23840;-47
2022/04/10 10:37:54;;;;;;;7.50;2.10;;;23.20;52.50;;;;;;220362;1265;22691;-45
2022/04/10 10:43:14;;;;;;;7.60;2.00;;;23.30;52.00;;;;;;220652;1265;23474;-47
2022/04/10 10:48:42;;;;;;;7.90;2.20;;;23.20;52.10;;;;;;220576;1265;25362;-45
2022/04/10 10:54:08;;;;;;;18.40;2.90;;;23.00;52.20;;;;;;220437;1265;24312;-45
2022/04/10 10:59:44;;;;;;;18.10;2.30;;;23.00;52.00;;;;;;220498;1265;24226;-44
2022/04/10 11:04:55;;;;;;;7.00;2.60;;;23.00;52.40;;;;;;220903;1265;25215;-46
2022/04/10 11:10:00;;;;;;;8.90;2.00;;;23.00;51.90;;;;;;220770;1265;22873;-45
2022/04/10 11:15:17;;;;;;;6.10;2.20;;;23.00;51.90;;;;;;220407;1265;22884;-45
2022/04/10 11:20:27;;;;;;;9.80;1.90;;;22.90;51.80;;;;;;220606;1266;22528;-47
2022/04/10 11:25:38;;;;;;;7.10;2.30;;;22.90;51.90;;;;;;220535;1267;24323;-50
2022/04/10 11:30:45;;;;;;;6.20;1.90;;;23.00;51.40;;;;;;220907;1267;25535;-50
2022/04/10 11:35:56;;;;;;;10.30;1.70;;;23.00;51.40;;;;;;220296;1265;22748;-49
2022/04/10 11:41:02;;;;;;;5.10;1.60;;;22.90;51.10;;;;;;221135;1267;22557;-45
2022/04/10 11:46:08;;;;;;;6.80;1.80;;;22.90;51.20;;;;;;220460;1265;22670;-50
2022/04/10 11:51:16;;;;;;;5.90;1.30;;;22.80;51.20;;;;;;220658;1265;25328;-46
2022/04/10 11:56:21;;;;;;;8.10;2.40;;;22.70;51.10;;;;;;220847;1265;25624;-47
2022/04/10 12:01:25;;;;;;;5.70;1.50;;;22.60;51.10;;;;;;220742;1265;22843;-47
2022/04/10 12:06:29;;;;;;;5.00;1.80;;;22.60;51.30;;;;;;220551;1265;22611;-51
2022/04/10 12:11:43;;;;;;;6.00;1.70;;;22.60;51.00;;;;;;220791;1265;24256;-48
2022/04/10 12:16:51;;;;;;;3.30;1.40;;;22.60;50.80;;;;;;220783;1265;25512;-46
2022/04/10 12:21:54;;;;;;;4.50;1.70;;;22.60;51.10;;;;;;220917;1265;25478;-47
2022/04/10 12:26:59;;;;;;;4.30;1.90;;;22.60;50.60;;;;;;220855;1265;24307;-46
2022/04/10 12:32:04;;;;;;;5.40;1.80;;;22.60;50.40;;;;;;220749;1265;22816;-49
2022/04/10 12:37:14;;;;;;;4.10;1.40;;;22.70;50.30;;;;;;220755;1265;22602;-48
2022/04/10 12:42:20;;;;;;;4.40;2.10;;;22.60;50.30;;;;;;220794;1267;22556;-46
2022/04/10 12:47:41;;;;;;;8.70;1.60;;;22.60;50.20;;;;;;220833;1265;25482;-48
2022/04/10 12:52:46;;;;;;;4.30;1.60;;;22.60;50.40;;;;;;220688;1265;24425;-47
2022/04/10 12:57:56;;;;;;;2.90;1.30;;;22.70;50.10;;;;;;220846;1265;24224;-47
2022/04/10 13:03:22;;;;;;;4.10;1.40;;;22.60;49.90;;;;;;220362;1266;22577;-48
2022/04/10 13:08:28;;;;;;;3.10;1.30;;;22.60;50.10;;;;;;220933;1265;26099;-48
2022/04/10 13:14:03;;;;;;;4.60;1.70;;;22.60;49.90;;;;;;220713;1265;22610;-47
2022/04/10 13:19:14;;;;;;;3.50;1.70;;;22.70;49.80;;;;;;220631;1265;24368;-49
2022/04/10 13:24:19;;;;;;;2.70;1.10;;;22.70;49.70;;;;;;220625;1265;22528;-47
2022/04/10 13:29:23;;;;;;;2.90;1.30;;;22.70;49.70;;;;;;220686;1265;22550;-47
2022/04/10 13:34:27;;;;;;;3.90;1.70;;;22.60;49.60;;;;;;220677;1266;22573;-46
2022/04/10 13:39:49;;;;;;;2.00;1.20;;;22.60;49.60;;;;;;220703;1265;24424;-51
2022/04/10 13:45:05;;;;;;;2.50;1.40;;;22.60;49.60;;;;;;220740;1265;22564;-47
2022/04/10 13:50:10;;;;;;;4.20;1.60;;;22.60;49.50;;;;;;220476;1265;25320;-48
2022/04/10 13:55:18;;;;;;;3.20;1.40;;;22.60;49.50;;;;;;220568;1266;24957;-49
2022/04/10 14:00:22;;;;;;;3.70;1.70;;;22.50;49.40;;;;;;220467;1266;25317;-47
2022/04/10 14:05:28;;;;;;;3.00;1.20;;;22.50;49.80;;;;;;220717;1265;24728;-49
2022/04/10 14:10:33;;;;;;;2.90;1.30;;;22.50;49.40;;;;;;220599;1265;26668;-47
2022/04/10 14:15:36;;;;;;;3.90;1.60;;;22.50;49.60;;;;;;220750;1266;24366;-46
2022/04/10 14:20:41;;;;;;;3.50;1.30;;;22.50;49.30;;;;;;220710;1266;22768;-52
2022/04/10 14:25:47;;;;;;;2.30;1.10;;;22.50;49.20;;;;;;220413;1266;22596;-47
2022/04/10 14:30:54;;;;;;;2.10;1.10;;;22.50;49.30;;;;;;220880;1266;23203;-53
2022/04/10 14:36:08;;;;;;;3.00;1.10;;;22.50;49.30;;;;;;220468;1268;22568;-48
2022/04/10 14:41:12;;;;;;;2.40;1.10;;;22.50;49.20;;;;;;220813;1266;25088;-47
2022/04/10 14:46:18;;;;;;;3.10;1.50;;;22.50;49.40;;;;;;220555;1266;22566;-52
2022/04/10 14:51:27;;;;;;;3.20;1.30;;;22.50;49.10;;;;;;220627;1266;22688;-47
2022/04/10 14:56:34;;;;;;;2.20;1.20;;;22.40;49.10;;;;;;220752;1266;24300;-49
2022/04/10 15:01:43;;;;;;;1.80;1.00;;;22.40;49.10;;;;;;220364;1266;24198;-48
2022/04/10 15:06:47;;;;;;;3.30;1.50;;;22.40;49.20;;;;;;220548;1266;22614;-50
2022/04/10 15:11:54;;;;;;;2.00;1.20;;;22.40;49.30;;;;;;220709;1266;24332;-51
2022/04/10 15:17:02;;;;;;;3.10;1.20;;;22.60;48.60;;;;;;220644;1265;25314;-48
2022/04/10 15:22:07;;;;;;;2.70;1.30;;;23.10;47.90;;;;;;220747;1265;22572;-46
2022/04/10 15:27:15;;;;;;;2.80;1.20;;;23.40;47.00;;;;;;220847;1265;22567;-48
2022/04/10 15:32:18;;;;;;;2.10;1.10;;;23.50;46.70;;;;;;220622;1265;23970;-52
2022/04/10 15:37:23;;;;;;;2.60;1.30;;;23.70;46.60;;;;;;220563;1266;22598;-49
2022/04/10 15:42:30;;;;;;;2.70;1.30;;;23.80;46.10;;;;;;220393;1265;22623;-49
2022/04/10 15:47:41;;;;;;;4.30;1.30;;;23.80;46.10;;;;;;220733;1265;24475;-47
2022/04/10 15:52:56;;;;;;;8.70;1.40;;;23.90;45.80;;;;;;220962;1265;23942;-50
2022/04/10 15:58:16;;;;;;;6.40;1.40;;;23.90;46.00;;;;;;228100;1265;22376;-49
2022/04/10 16:03:36;;;;;;;5.10;1.30;;;23.80;46.30;;;;;;228061;1265;22450;-55
2022/04/10 16:09:06;;;;;;;3.70;1.40;;;23.80;46.50;;;;;;228192;1265;22449;-51
2022/04/10 16:14:28;;;;;;;2.70;1.10;;;23.70;46.80;;;;;;227655;1268;23123;-53
2022/04/10 16:19:47;;;;;;;2.70;1.30;;;23.60;47.10;;;;;;227760;1266;22396;-51
2022/04/10 16:25:15;;;;;;;4.20;1.30;;;23.60;47.40;;;;;;227980;1264;22360;-46
2022/04/10 16:30:29;;;;;;;2.90;1.20;;;23.50;47.60;;;;;;228100;1268;22206;-54
2022/04/10 16:35:46;;;;;;;2.90;1.30;;;23.50;47.80;;;;;;226009;1265;22601;-50
2022/04/10 16:40:59;;;;;;;4.60;1.30;;;23.50;47.80;;;;;;228135;1268;22456;-49
2022/04/10 16:46:13;;;;;;;3.30;1.10;;;23.40;48.00;;;;;;228072;1265;22483;-52
2022/04/10 16:51:44;;;;;;;5.50;1.50;;;23.30;47.90;;;;;;227082;1267;22604;-47
2022/04/10 16:57:11;;;;;;;5.40;1.30;;;23.30;48.10;;;;;;224915;1264;22547;-50
2022/04/10 17:02:22;;;;;;;9.50;1.30;;;23.30;48.00;;;;;;220244;1265;25104;-48
2022/04/10 17:07:42;;;;;;;5.40;1.30;;;23.20;48.10;;;;;;228023;1264;22558;-55
2022/04/10 17:13:03;;;;;;;4.60;1.40;;;23.20;48.40;;;;;;225051;1265;22778;-43
2022/04/10 17:18:30;;;;;;;5.90;1.60;;;23.20;48.60;;;;;;220432;1266;22560;-45
2022/04/10 17:23:41;;;;;;;5.30;1.50;;;23.00;48.70;;;;;;220576;1265;22699;-44
2022/04/10 17:28:57;;;;;;;5.40;1.70;;;23.00;49.30;;;;;;220626;1265;24296;-48
2022/04/10 17:34:17;;;;;;;6.40;1.70;;;22.90;50.20;;;;;;220821;1265;22528;-45
2022/04/10 17:40:01;;;;;;;4.80;1.00;;;22.90;50.50;;;;;;220635;1266;22610;-45
2022/04/10 17:45:20;;;;;;;9.30;1.30;;;22.80;50.60;;;;;;221009;1265;25463;-47
2022/04/10 17:50:31;;;;;;;4.70;1.10;;;22.80;51.20;;;;;;220394;1265;24285;-46
2022/04/10 17:55:51;;;;;;;4.80;1.40;;;22.80;50.60;;;;;;220708;1266;25593;-48
2022/04/10 18:00:57;;;;;;;7.20;1.40;;;22.70;50.30;;;;;;220307;1266;24731;-46
2022/04/10 18:06:21;;;;;;;7.70;1.80;;;22.70;50.60;;;;;;220421;1266;24590;-46
2022/04/10 18:11:45;;;;;;;6.90;1.60;;;22.60;50.10;;;;;;220762;1265;24279;-51
2022/04/10 18:16:55;;;;;;;4.80;1.70;;;22.60;50.00;;;;;;220670;1265;25344;-46
2022/04/10 18:22:06;;;;;;;6.00;1.40;;;22.60;50.30;;;;;;220770;1267;22544;-45
2022/04/10 18:27:34;;;;;;;;;;;;;;;;;;;;;
2022/04/10 18:33:17;;;;;;;3.60;1.20;;;22.60;49.90;;;;;;220534;1266;24295;-49
2022/04/10 18:38:34;;;;;;;3.70;1.20;;;22.50;50.00;;;;;;220680;1267;25413;-46
2022/04/10 18:43:40;;;;;;;5.10;1.30;;;22.40;50.40;;;;;;220677;1267;253293;-46
2022/04/10 18:54:57;;;;;;;5.20;1.20;;;22.30;49.40;;;;;;220546;1267;22599;-47
2022/04/10 19:00:33;;;;;;;8.60;1.50;;;22.30;49.70;;;;;;220470;1266;24488;-46
2022/04/10 19:05:50;;;;;;;6.00;1.50;;;22.30;49.70;;;;;;220196;1266;24422;-47
2022/04/10 19:11:09;;;;;;;7.00;1.30;;;22.30;49.60;;;;;;220798;1267;23307;-50
2022/04/10 19:16:32;;;;;;;8.10;1.20;;;22.70;49.00;;;;;;220600;1267;24406;-46
2022/04/10 19:22:05;;;;;;;5.60;1.70;;;23.00;48.60;;;;;;220722;1267;22559;-47
2022/04/10 19:27:22;;;;;;;7.60;1.60;;;23.30;47.80;;;;;;220971;1267;22641;-43
2022/04/10 19:32:33;;;;;;;6.90;1.60;;;23.40;48.10;;;;;;220701;1266;25247;-44
2022/04/10 19:37:54;;;;;;;7.50;1.50;;;23.60;48.10;;;;;;220691;1266;24423;-49
2022/04/10 19:43:33;;;;;;;5.00;1.50;;;23.70;48.00;;;;;;220557;1267;24263;-51
2022/04/10 19:48:45;;;;;;;6.30;2.00;;;23.80;47.90;;;;;;220794;1267;22689;-45
2022/04/10 19:54:02;;;;;;;7.10;1.60;;;23.70;48.00;;;;;;220545;1267;24319;-46
2022/04/10 19:59:11;;;;;;;7.60;1.50;;;23.60;48.10;;;;;;220420;1267;22833;-45
2022/04/10 20:04:25;;;;;;;8.80;1.80;;;23.50;48.40;;;;;;220776;1267;23921;-46
2022/04/10 20:09:36;;;;;;;6.40;1.70;;;23.40;48.60;;;;;;220650;1266;24282;-47
2022/04/10 20:15:12;;;;;;;8.50;1.90;;;23.30;48.30;;;;;;220760;1267;24276;-46
2022/04/10 20:20:37;;;;;;;9.30;2.10;;;23.40;47.70;;;;;;220753;1267;23939;-48
2022/04/10 20:26:07;;;;;;;10.10;2.00;;;23.40;48.10;;;;;;220534;1267;24085;-48
2022/04/10 20:31:14;;;;;;;;;;;23.30;47.80;;;;;;220774;1267;23247;-50
2022/04/10 20:36:36;;;;;;;11.60;2.30;;;23.20;48.00;;;;;;220872;1266;22547;-49
2022/04/10 20:42:06;;;;;;;9.70;1.70;;;23.20;48.10;;;;;;220787;1266;24357;-48
2022/04/10 20:47:15;;;;;;;10.30;2.10;;;23.50;48.80;;;;;;220694;1267;22560;-47
2022/04/10 20:52:29;;;;;;;7.70;2.00;;;23.80;48.40;;;;;;220759;1267;22568;-48
2022/04/10 20:57:44;;;;;;;6.30;1.50;;;23.90;48.00;;;;;;220703;1266;26537;-50
2022/04/10 21:03:01;;;;;;;6.90;1.90;;;24.00;48.20;;;;;;220330;1266;22704;-47
2022/04/10 21:08:05;;;;;;;6.70;2.30;;;23.90;48.40;;;;;;220657;1267;24341;-49
2022/04/10 21:13:22;;;;;;;6.10;2.10;;;23.70;48.50;;;;;;220598;1266;22549;-47
2022/04/10 21:18:26;;;;;;;6.80;1.80;;;23.60;48.80;;;;;;220435;1267;22586;-48
2022/04/10 21:23:30;;;;;;;7.80;1.50;;;23.50;49.00;;;;;;220407;1267;22554;-52
2022/04/10 21:28:42;;;;;;;7.90;1.80;;;23.30;49.30;;;;;;220538;1266;24405;-49
2022/04/10 21:33:53;;;;;;;4.70;1.40;;;23.30;49.60;;;;;;220787;1266;22862;-49
2022/04/10 21:38:59;;;;;;;3.10;1.60;;;23.20;49.70;;;;;;220442;1267;25334;-51
2022/04/10 21:44:04;;;;;;;3.90;1.30;;;23.10;49.80;;;;;;220318;1266;22573;-49
2022/04/10 21:49:09;;;;;;;4.40;1.40;;;23.10;49.90;;;;;;220120;1268;24289;-49
2022/04/10 21:54:13;;;;;;;5.60;1.40;;;23.20;49.60;;;;;;220327;1266;22941;-50
2022/04/10 21:59:18;;;;;;;4.50;1.40;;;23.00;49.70;;;;;;220539;1267;22881;-46
2022/04/10 22:04:27;;;;;;;5.70;1.70;;;22.90;50.00;;;;;;220377;1266;24037;-53
2022/04/10 22:09:42;;;;;;;4.10;1.70;;;22.90;50.40;;;;;;220581;1265;24301;-52
2022/04/10 22:14:46;;;;;;;5.10;1.60;;;22.80;50.10;;;;;;220351;1266;23923;-54
2022/04/10 22:19:53;;;;;;;5.20;1.70;;;22.80;50.30;;;;;;220633;1265;24223;-50
2022/04/10 22:25:10;;;;;;;3.10;1.40;;;22.80;50.20;;;;;;220454;1267;24262;-47
2022/04/10 22:30:14;;;;;;;6.20;1.40;;;22.80;50.30;;;;;;220473;1266;25247;-49
2022/04/10 22:35:20;;;;;;;8.90;1.60;;;22.60;50.40;;;;;;220839;1266;25431;-49
2022/04/10 22:40:24;;;;;;;5.70;1.40;;;22.60;50.40;;;;;;220539;1267;22561;-51
2022/04/10 22:45:28;;;;;;;5.30;1.70;;;22.60;50.40;;;;;;221680;1266;22592;-52
2022/04/10 22:50:32;;;;;;;6.70;1.70;;;22.50;50.60;;;;;;221466;1265;22642;-53
2022/04/10 22:55:39;;;;;;;9.00;1.60;;;22.50;51.50;;;;;;220411;1266;22666;-47
2022/04/10 23:00:42;;;;;;;6.40;1.40;;;22.50;51.40;;;;;;220583;1267;24809;-50
2022/04/10 23:05:50;;;;;;;5.20;1.70;;;22.40;51.40;;;;;;220585;1265;24065;-51
2022/04/10 23:10:55;;;;;;;4.30;1.60;;;22.40;51.70;;;;;;220665;1265;25418;-50
2022/04/10 23:15:59;;;;;;;4.80;1.40;;;22.30;51.50;;;;;;220411;1266;25506;-48
2022/04/10 23:21:03;;;;;;;3.70;1.40;;;22.20;51.60;;;;;;220581;1265;22690;-50
2022/04/10 23:26:08;;;;;;;8.60;1.70;;;22.20;51.60;;;;;;220830;1267;24098;-51
2022/04/10 23:31:15;;;;;;;5.00;1.50;;;22.20;51.90;;;;;;220736;1265;25472;-48
2022/04/10 23:36:19;;;;;;;5.80;2.10;;;22.20;51.80;;;;;;220830;1265;25516;-48
2022/04/10 23:41:27;;;;;;;3.40;1.40;;;22.60;50.60;;;;;;220823;1265;22696;-47
2022/04/10 23:46:31;;;;;;;9.20;1.50;;;22.90;50.10;;;;;;220627;1266;22572;-52
2022/04/10 23:51:35;;;;;;;3.40;1.30;;;23.20;49.30;;;;;;220745;1267;22686;-49
2022/04/10 23:56:39;;;;;;;5.20;1.50;;;23.30;48.90;;;;;;220661;1265;25351;-49
